sensor_id;sensor_type;location;lat;lon;timestamp;temperature;humidity
9901;DHT22;4989;48.772;9.154;2023-04-26T00:01:49;11.60;88.30
9901;DHT22;4989;48.772;9.154;2023-04-26T00:06:51;11.70;91.90
9901;DHT22;4989;48.772;9.154;2023-04-26T00:11:54;11.90;91.60
9901;DHT22;4989;48.772;9.154;2023-04-26T00:16:56;12.00;90.80
9901;DHT22;4989;48.772;9.154;2023-04-26T00:21:58;12.10;91.30
9901;DHT22;4989;48.772;9.154;2023-04-26T00:27:00;11.90;84.80
9901;DHT22;4989;48.772;9.154;2023-04-26T00:32:06;11.00;90.60
9901;DHT22;4989;48.772;9.154;2023-04-26T00:37:08;10.30;88.50
9901;DHT22;4989;48.772;9.154;2023-04-26T00:42:10;10.20;90.20
9901;DHT22;4989;48.772;9.154;2023-04-26T00:47:13;9.90;90.10
9901;DHT22;4989;48.772;9.154;2023-04-26T00:52:15;9.90;89.00
9901;DHT22;4989;48.772;9.154;2023-04-26T00:57:17;9.70;90.30
9901;DHT22;4989;48.772;9.154;2023-04-26T01:02:20;9.30;89.90
9901;DHT22;4989;48.772;9.154;2023-04-26T01:07:22;9.10;90.30
9901;DHT22;4989;48.772;9.154;2023-04-26T01:12:25;9.20;91.00
9901;DHT22;4989;48.772;9.154;2023-04-26T01:17:27;9.40;90.70
9901;DHT22;4989;48.772;9.154;2023-04-26T01:22:34;9.80;89.80
9901;DHT22;4989;48.772;9.154;2023-04-26T01:27:37;9.90;92.30
9901;DHT22;4989;48.772;9.154;2023-04-26T01:32:40;10.70;91.20
9901;DHT22;4989;48.772;9.154;2023-04-26T01:37:43;10.90;90.20
9901;DHT22;4989;48.772;9.154;2023-04-26T01:42:45;11.10;88.70
9901;DHT22;4989;48.772;9.154;2023-04-26T01:47:47;11.20;84.10
9901;DHT22;4989;48.772;9.154;2023-04-26T01:52:49;10.70;84.50
9901;DHT22;4989;48.772;9.154;2023-04-26T01:57:52;10.10;88.80
9901;DHT22;4989;48.772;9.154;2023-04-26T02:02:55;10.40;90.40
9901;DHT22;4989;48.772;9.154;2023-04-26T02:07:58;10.40;88.00
9901;DHT22;4989;48.772;9.154;2023-04-26T02:13:00;10.50;88.00
9901;DHT22;4989;48.772;9.154;2023-04-26T02:18:03;10.60;93.30
9901;DHT22;4989;48.772;9.154;2023-04-26T02:23:05;10.80;88.50
9901;DHT22;4989;48.772;9.154;2023-04-26T02:28:08;10.70;91.20
9901;DHT22;4989;48.772;9.154;2023-04-26T02:33:10;10.70;88.20
9901;DHT22;4989;48.772;9.154;2023-04-26T02:38:13;9.90;92.00
9901;DHT22;4989;48.772;9.154;2023-04-26T02:43:15;10.50;91.10
9901;DHT22;4989;48.772;9.154;2023-04-26T02:48:18;10.70;90.70
9901;DHT22;4989;48.772;9.154;2023-04-26T02:53:20;10.00;91.00
9901;DHT22;4989;48.772;9.154;2023-04-26T02:58:22;9.90;92.20
9901;DHT22;4989;48.772;9.154;2023-04-26T03:03:24;9.90;91.40
9901;DHT22;4989;48.772;9.154;2023-04-26T03:08:27;9.90;91.90
9901;DHT22;4989;48.772;9.154;2023-04-26T03:13:29;10.50;93.10
9901;DHT22;4989;48.772;9.154;2023-04-26T03:18:32;10.90;92.40
9901;DHT22;4989;48.772;9.154;2023-04-26T03:23:35;11.00;90.60
9901;DHT22;4989;48.772;9.154;2023-04-26T03:28:37;9.70;92.00
9901;DHT22;4989;48.772;9.154;2023-04-26T03:33:39;8.80;93.80
9901;DHT22;4989;48.772;9.154;2023-04-26T03:38:42;8.50;94.90
9901;DHT22;4989;48.772;9.154;2023-04-26T03:43:45;9.10;95.00
9901;DHT22;4989;48.772;9.154;2023-04-26T03:48:47;9.50;93.60
9901;DHT22;4989;48.772;9.154;2023-04-26T03:53:50;9.20;94.10
9901;DHT22;4989;48.772;9.154;2023-04-26T03:58:53;9.00;92.90
9901;DHT22;4989;48.772;9.154;2023-04-26T04:03:55;8.50;95.20
9901;DHT22;4989;48.772;9.154;2023-04-26T04:08:58;8.30;95.90
9901;DHT22;4989;48.772;9.154;2023-04-26T04:14:00;8.10;96.40
9901;DHT22;4989;48.772;9.154;2023-04-26T04:19:04;7.90;97.50
9901;DHT22;4989;48.772;9.154;2023-04-26T04:24:07;8.00;98.40
9901;DHT22;4989;48.772;9.154;2023-04-26T04:29:09;7.80;98.10
9901;DHT22;4989;48.772;9.154;2023-04-26T04:34:12;8.10;98.00
9901;DHT22;4989;48.772;9.154;2023-04-26T04:39:16;8.40;97.40
9901;DHT22;4989;48.772;9.154;2023-04-26T04:44:19;8.40;97.30
9901;DHT22;4989;48.772;9.154;2023-04-26T04:49:22;9.10;96.40
9901;DHT22;4989;48.772;9.154;2023-04-26T04:54:26;9.40;95.10
9901;DHT22;4989;48.772;9.154;2023-04-26T04:59:29;9.20;95.70
9901;DHT22;4989;48.772;9.154;2023-04-26T05:04:35;8.90;95.90
9901;DHT22;4989;48.772;9.154;2023-04-26T05:09:38;8.90;97.80
9901;DHT22;4989;48.772;9.154;2023-04-26T05:14:41;9.20;95.80
9901;DHT22;4989;48.772;9.154;2023-04-26T05:19:43;9.90;96.60
9901;DHT22;4989;48.772;9.154;2023-04-26T05:24:46;10.30;93.10
9901;DHT22;4989;48.772;9.154;2023-04-26T05:29:49;9.40;94.30
9901;DHT22;4989;48.772;9.154;2023-04-26T05:34:59;9.50;95.70
9901;DHT22;4989;48.772;9.154;2023-04-26T05:40:04;9.60;93.90
9901;DHT22;4989;48.772;9.154;2023-04-26T05:45:08;9.00;94.80
9901;DHT22;4989;48.772;9.154;2023-04-26T05:50:12;9.80;95.20
9901;DHT22;4989;48.772;9.154;2023-04-26T05:55:14;10.20;92.90
9901;DHT22;4989;48.772;9.154;2023-04-26T06:00:17;10.30;92.50
9901;DHT22;4989;48.772;9.154;2023-04-26T06:05:22;10.30;95.40
9901;DHT22;4989;48.772;9.154;2023-04-26T06:10:25;10.60;93.80
9901;DHT22;4989;48.772;9.154;2023-04-26T06:15:27;11.00;95.30
9901;DHT22;4989;48.772;9.154;2023-04-26T06:20:29;11.20;94.80
9901;DHT22;4989;48.772;9.154;2023-04-26T06:25:32;11.50;91.20
9901;DHT22;4989;48.772;9.154;2023-04-26T06:30:35;11.60;93.80
9901;DHT22;4989;48.772;9.154;2023-04-26T06:35:40;12.00;92.00
9901;DHT22;4989;48.772;9.154;2023-04-26T06:40:44;12.30;93.10
9901;DHT22;4989;48.772;9.154;2023-04-26T06:45:47;12.60;92.50
9901;DHT22;4989;48.772;9.154;2023-04-26T06:50:53;12.70;91.50
9901;DHT22;4989;48.772;9.154;2023-04-26T06:55:55;12.90;84.50
9901;DHT22;4989;48.772;9.154;2023-04-26T07:00:58;12.40;83.10
9901;DHT22;4989;48.772;9.154;2023-04-26T07:06:02;12.10;78.60
9901;DHT22;4989;48.772;9.154;2023-04-26T07:11:12;12.60;81.60
9901;DHT22;4989;48.772;9.154;2023-04-26T07:16:14;13.30;82.50
9901;DHT22;4989;48.772;9.154;2023-04-26T07:21:16;13.70;74.90
9901;DHT22;4989;48.772;9.154;2023-04-26T07:26:19;13.40;77.20
9901;DHT22;4989;48.772;9.154;2023-04-26T07:31:22;14.00;78.40
9901;DHT22;4989;48.772;9.154;2023-04-26T07:36:24;14.00;68.90
9901;DHT22;4989;48.772;9.154;2023-04-26T07:41:27;14.40;77.50
9901;DHT22;4989;48.772;9.154;2023-04-26T07:46:29;14.90;62.40
9901;DHT22;4989;48.772;9.154;2023-04-26T07:51:34;15.00;67.10
9901;DHT22;4989;48.772;9.154;2023-04-26T07:56:37;14.80;61.30
9901;DHT22;4989;48.772;9.154;2023-04-26T08:01:40;13.20;62.10
9901;DHT22;4989;48.772;9.154;2023-04-26T08:06:42;14.30;66.70
9901;DHT22;4989;48.772;9.154;2023-04-26T08:11:45;15.10;70.40
9901;DHT22;4989;48.772;9.154;2023-04-26T08:16:48;15.40;61.60
9901;DHT22;4989;48.772;9.154;2023-04-26T08:21:50;15.70;61.20
9901;DHT22;4989;48.772;9.154;2023-04-26T08:26:53;14.50;56.90
9901;DHT22;4989;48.772;9.154;2023-04-26T08:31:56;14.40;65.50
9901;DHT22;4989;48.772;9.154;2023-04-26T08:36:58;14.90;63.10
9901;DHT22;4989;48.772;9.154;2023-04-26T08:42:12;15.90;67.20
9901;DHT22;4989;48.772;9.154;2023-04-26T08:47:37;16.10;58.20
9901;DHT22;4989;48.772;9.154;2023-04-26T08:52:51;15.70;60.40
9901;DHT22;4989;48.772;9.154;2023-04-26T08:57:53;15.30;63.70
9901;DHT22;4989;48.772;9.154;2023-04-26T09:02:56;15.10;60.50
9901;DHT22;4989;48.772;9.154;2023-04-26T09:08:03;14.50;57.30
9901;DHT22;4989;48.772;9.154;2023-04-26T09:13:08;13.50;61.80
9901;DHT22;4989;48.772;9.154;2023-04-26T09:18:20;13.30;64.60
9901;DHT22;4989;48.772;9.154;2023-04-26T09:23:23;14.10;69.50
9901;DHT22;4989;48.772;9.154;2023-04-26T09:28:26;14.30;62.90
9901;DHT22;4989;48.772;9.154;2023-04-26T09:33:28;14.40;61.10
9901;DHT22;4989;48.772;9.154;2023-04-26T09:38:41;14.30;70.50
9901;DHT22;4989;48.772;9.154;2023-04-26T09:43:44;14.20;62.30
9901;DHT22;4989;48.772;9.154;2023-04-26T09:49:00;14.10;64.00
9901;DHT22;4989;48.772;9.154;2023-04-26T09:54:03;14.10;61.70
9901;DHT22;4989;48.772;9.154;2023-04-26T09:59:05;14.20;62.10
9901;DHT22;4989;48.772;9.154;2023-04-26T10:04:09;14.30;59.40
9901;DHT22;4989;48.772;9.154;2023-04-26T10:09:12;14.40;60.10
9901;DHT22;4989;48.772;9.154;2023-04-26T10:14:15;15.00;66.60
9901;DHT22;4989;48.772;9.154;2023-04-26T10:19:17;15.70;60.20
9901;DHT22;4989;48.772;9.154;2023-04-26T10:24:21;16.70;58.20
9901;DHT22;4989;48.772;9.154;2023-04-26T10:29:30;18.20;56.60
9901;DHT22;4989;48.772;9.154;2023-04-26T10:35:10;17.60;55.10
9901;DHT22;4989;48.772;9.154;2023-04-26T10:40:24;17.00;60.10
9901;DHT22;4989;48.772;9.154;2023-04-26T10:45:30;16.60;56.00
9901;DHT22;4989;48.772;9.154;2023-04-26T10:50:32;16.50;56.20
9901;DHT22;4989;48.772;9.154;2023-04-26T10:55:41;15.10;54.70
9901;DHT22;4989;48.772;9.154;2023-04-26T11:01:06;15.30;56.70
9901;DHT22;4989;48.772;9.154;2023-04-26T11:06:12;15.50;53.60
9901;DHT22;4989;48.772;9.154;2023-04-26T11:11:17;15.20;56.00
9901;DHT22;4989;48.772;9.154;2023-04-26T11:16:22;16.90;51.30
9901;DHT22;4989;48.772;9.154;2023-04-26T11:21:27;17.70;50.40
9901;DHT22;4989;48.772;9.154;2023-04-26T11:26:32;18.20;54.80
9901;DHT22;4989;48.772;9.154;2023-04-26T11:31:35;17.70;54.00
9901;DHT22;4989;48.772;9.154;2023-04-26T11:36:38;17.80;56.40
9901;DHT22;4989;48.772;9.154;2023-04-26T11:41:40;19.80;54.10
9901;DHT22;4989;48.772;9.154;2023-04-26T11:46:42;19.40;53.10
9901;DHT22;4989;48.772;9.154;2023-04-26T11:51:47;20.00;49.80
9901;DHT22;4989;48.772;9.154;2023-04-26T11:56:50;21.00;48.10
9901;DHT22;4989;48.772;9.154;2023-04-26T12:01:55;20.60;51.30
9901;DHT22;4989;48.772;9.154;2023-04-26T12:06:58;20.00;51.10
9901;DHT22;4989;48.772;9.154;2023-04-26T12:12:02;20.60;53.40
9901;DHT22;4989;48.772;9.154;2023-04-26T12:17:08;20.70;53.80
9901;DHT22;4989;48.772;9.154;2023-04-26T12:22:11;20.20;48.40
9901;DHT22;4989;48.772;9.154;2023-04-26T12:27:19;21.00;49.20
9901;DHT22;4989;48.772;9.154;2023-04-26T12:32:22;20.80;45.10
9901;DHT22;4989;48.772;9.154;2023-04-26T12:37:25;17.90;47.10
9901;DHT22;4989;48.772;9.154;2023-04-26T12:42:27;16.10;48.40
9901;DHT22;4989;48.772;9.154;2023-04-26T12:47:30;16.50;49.80
9901;DHT22;4989;48.772;9.154;2023-04-26T12:52:33;17.20;51.00
9901;DHT22;4989;48.772;9.154;2023-04-26T12:57:36;17.90;50.60
9901;DHT22;4989;48.772;9.154;2023-04-26T13:02:39;19.90;49.80
9901;DHT22;4989;48.772;9.154;2023-04-26T13:07:42;21.00;46.10
9901;DHT22;4989;48.772;9.154;2023-04-26T13:12:45;21.50;45.10
9901;DHT22;4989;48.772;9.154;2023-04-26T13:17:47;20.80;44.40
9901;DHT22;4989;48.772;9.154;2023-04-26T13:22:50;22.00;45.80
9901;DHT22;4989;48.772;9.154;2023-04-26T13:27:52;22.60;42.20
9901;DHT22;4989;48.772;9.154;2023-04-26T13:32:56;21.40;41.30
9901;DHT22;4989;48.772;9.154;2023-04-26T13:38:01;20.90;46.70
9901;DHT22;4989;48.772;9.154;2023-04-26T13:43:03;20.40;45.40
9901;DHT22;4989;48.772;9.154;2023-04-26T13:48:06;20.40;51.10
9901;DHT22;4989;48.772;9.154;2023-04-26T13:53:08;21.50;45.70
9901;DHT22;4989;48.772;9.154;2023-04-26T13:58:11;21.10;45.70
9901;DHT22;4989;48.772;9.154;2023-04-26T14:03:13;20.70;46.50
9901;DHT22;4989;48.772;9.154;2023-04-26T14:08:16;20.20;43.40
9901;DHT22;4989;48.772;9.154;2023-04-26T14:13:18;20.30;48.20
9901;DHT22;4989;48.772;9.154;2023-04-26T14:18:21;20.30;44.90
9901;DHT22;4989;48.772;9.154;2023-04-26T14:23:23;20.60;50.40
9901;DHT22;4989;48.772;9.154;2023-04-26T14:28:25;21.50;50.10
9901;DHT22;4989;48.772;9.154;2023-04-26T14:33:27;21.40;51.70
9901;DHT22;4989;48.772;9.154;2023-04-26T14:38:30;21.60;45.40
9901;DHT22;4989;48.772;9.154;2023-04-26T14:43:33;21.90;53.40
9901;DHT22;4989;48.772;9.154;2023-04-26T14:48:35;21.20;45.10
9901;DHT22;4989;48.772;9.154;2023-04-26T14:53:37;20.40;48.70
9901;DHT22;4989;48.772;9.154;2023-04-26T14:58:39;18.40;45.90
9901;DHT22;4989;48.772;9.154;2023-04-26T15:03:42;18.50;49.70
9901;DHT22;4989;48.772;9.154;2023-04-26T15:08:44;18.90;55.00
9901;DHT22;4989;48.772;9.154;2023-04-26T15:13:46;19.00;49.00
9901;DHT22;4989;48.772;9.154;2023-04-26T15:18:48;18.70;57.20
9901;DHT22;4989;48.772;9.154;2023-04-26T15:23:51;18.80;51.90
9901;DHT22;4989;48.772;9.154;2023-04-26T15:28:53;18.70;51.50
9901;DHT22;4989;48.772;9.154;2023-04-26T15:33:55;18.90;54.00
9901;DHT22;4989;48.772;9.154;2023-04-26T15:38:57;18.80;54.70
9901;DHT22;4989;48.772;9.154;2023-04-26T15:43:59;18.70;57.20
9901;DHT22;4989;48.772;9.154;2023-04-26T15:49:02;18.70;56.20
9901;DHT22;4989;48.772;9.154;2023-04-26T15:54:05;18.70;52.70
9901;DHT22;4989;48.772;9.154;2023-04-26T15:59:07;18.60;52.50
9901;DHT22;4989;48.772;9.154;2023-04-26T16:04:09;18.40;59.40
9901;DHT22;4989;48.772;9.154;2023-04-26T16:09:12;18.30;49.70
9901;DHT22;4989;48.772;9.154;2023-04-26T16:14:26;18.20;57.70
9901;DHT22;4989;48.772;9.154;2023-04-26T16:19:28;18.30;52.40
9901;DHT22;4989;48.772;9.154;2023-04-26T16:24:31;18.20;59.60
9901;DHT22;4989;48.772;9.154;2023-04-26T16:29:34;18.30;52.10
9901;DHT22;4989;48.772;9.154;2023-04-26T16:34:36;18.10;51.80
9901;DHT22;4989;48.772;9.154;2023-04-26T16:39:38;17.90;51.80
9901;DHT22;4989;48.772;9.154;2023-04-26T16:44:41;18.00;53.10
9901;DHT22;4989;48.772;9.154;2023-04-26T16:49:46;18.00;52.10
9901;DHT22;4989;48.772;9.154;2023-04-26T16:54:48;18.00;61.10
9901;DHT22;4989;48.772;9.154;2023-04-26T16:59:50;17.80;51.70
9901;DHT22;4989;48.772;9.154;2023-04-26T17:04:53;17.30;51.70
9901;DHT22;4989;48.772;9.154;2023-04-26T17:09:56;17.50;61.40
9901;DHT22;4989;48.772;9.154;2023-04-26T17:14:58;17.60;55.90
9901;DHT22;4989;48.772;9.154;2023-04-26T17:20:03;17.40;59.10
9901;DHT22;4989;48.772;9.154;2023-04-26T17:25:07;17.30;55.80
9901;DHT22;4989;48.772;9.154;2023-04-26T17:30:10;17.30;57.20
9901;DHT22;4989;48.772;9.154;2023-04-26T17:35:13;17.10;52.70
9901;DHT22;4989;48.772;9.154;2023-04-26T17:40:16;17.00;58.40
9901;DHT22;4989;48.772;9.154;2023-04-26T17:45:19;17.00;56.20
9901;DHT22;4989;48.772;9.154;2023-04-26T17:50:21;17.20;57.30
9901;DHT22;4989;48.772;9.154;2023-04-26T17:55:24;16.90;54.00
9901;DHT22;4989;48.772;9.154;2023-04-26T18:00:26;16.50;53.30
9901;DHT22;4989;48.772;9.154;2023-04-26T18:05:29;16.40;63.50
9901;DHT22;4989;48.772;9.154;2023-04-26T18:10:32;16.50;53.70
9901;DHT22;4989;48.772;9.154;2023-04-26T18:15:35;16.20;55.10
9901;DHT22;4989;48.772;9.154;2023-04-26T18:20:37;16.30;54.60
9901;DHT22;4989;48.772;9.154;2023-04-26T18:25:39;16.10;52.80
9901;DHT22;4989;48.772;9.154;2023-04-26T18:30:42;15.90;56.60
9901;DHT22;4989;48.772;9.154;2023-04-26T18:35:46;15.60;55.50
9901;DHT22;4989;48.772;9.154;2023-04-26T18:40:49;15.50;52.70
9901;DHT22;4989;48.772;9.154;2023-04-26T18:45:51;15.20;57.70
9901;DHT22;4989;48.772;9.154;2023-04-26T18:50:54;15.40;58.20
9901;DHT22;4989;48.772;9.154;2023-04-26T18:55:57;15.50;56.60
9901;DHT22;4989;48.772;9.154;2023-04-26T19:00:59;15.50;55.20
9901;DHT22;4989;48.772;9.154;2023-04-26T19:06:09;15.60;56.00
9901;DHT22;4989;48.772;9.154;2023-04-26T19:11:15;15.60;56.70
9901;DHT22;4989;48.772;9.154;2023-04-26T19:16:17;15.50;58.10
9901;DHT22;4989;48.772;9.154;2023-04-26T19:21:20;15.50;57.40
9901;DHT22;4989;48.772;9.154;2023-04-26T19:26:22;15.50;57.40
9901;DHT22;4989;48.772;9.154;2023-04-26T19:31:24;15.30;56.00
9901;DHT22;4989;48.772;9.154;2023-04-26T19:36:26;15.10;55.90
9901;DHT22;4989;48.772;9.154;2023-04-26T19:41:29;15.10;55.30
9901;DHT22;4989;48.772;9.154;2023-04-26T19:46:32;15.00;56.10
9901;DHT22;4989;48.772;9.154;2023-04-26T19:51:34;14.90;56.00
9901;DHT22;4989;48.772;9.154;2023-04-26T19:56:36;14.20;54.80
9901;DHT22;4989;48.772;9.154;2023-04-26T20:01:39;13.60;55.80
9901;DHT22;4989;48.772;9.154;2023-04-26T20:06:41;13.40;56.50
9901;DHT22;4989;48.772;9.154;2023-04-26T20:11:43;13.20;58.30
9901;DHT22;4989;48.772;9.154;2023-04-26T20:16:46;13.20;58.10
9901;DHT22;4989;48.772;9.154;2023-04-26T20:21:48;13.70;59.40
9901;DHT22;4989;48.772;9.154;2023-04-26T20:26:50;13.70;58.80
9901;DHT22;4989;48.772;9.154;2023-04-26T20:31:52;13.90;57.50
9901;DHT22;4989;48.772;9.154;2023-04-26T20:36:54;13.70;58.80
9901;DHT22;4989;48.772;9.154;2023-04-26T20:41:57;13.80;60.40
9901;DHT22;4989;48.772;9.154;2023-04-26T20:46:59;13.80;60.10
9901;DHT22;4989;48.772;9.154;2023-04-26T20:52:01;12.90;60.00
9901;DHT22;4989;48.772;9.154;2023-04-26T20:57:04;12.60;60.60
9901;DHT22;4989;48.772;9.154;2023-04-26T21:02:07;13.50;70.20
9901;DHT22;4989;48.772;9.154;2023-04-26T21:07:10;13.50;61.60
9901;DHT22;4989;48.772;9.154;2023-04-26T21:12:12;13.40;64.30
9901;DHT22;4989;48.772;9.154;2023-04-26T21:17:14;13.50;63.70
9901;DHT22;4989;48.772;9.154;2023-04-26T21:22:17;13.80;62.50
9901;DHT22;4989;48.772;9.154;2023-04-26T21:27:19;14.00;61.20
9901;DHT22;4989;48.772;9.154;2023-04-26T21:32:21;13.70;62.60
9901;DHT22;4989;48.772;9.154;2023-04-26T21:37:23;13.40;61.60
9901;DHT22;4989;48.772;9.154;2023-04-26T21:42:25;13.70;62.40
9901;DHT22;4989;48.772;9.154;2023-04-26T21:47:28;13.20;61.20
9901;DHT22;4989;48.772;9.154;2023-04-26T21:52:30;13.10;67.60
9901;DHT22;4989;48.772;9.154;2023-04-26T21:57:32;13.50;63.10
9901;DHT22;4989;48.772;9.154;2023-04-26T22:02:34;14.10;65.30
9901;DHT22;4989;48.772;9.154;2023-04-26T22:07:37;14.20;62.40
9901;DHT22;4989;48.772;9.154;2023-04-26T22:12:39;14.00;60.00
9901;DHT22;4989;48.772;9.154;2023-04-26T22:17:42;13.60;63.50
9901;DHT22;4989;48.772;9.154;2023-04-26T22:22:44;13.10;63.20
9901;DHT22;4989;48.772;9.154;2023-04-26T22:27:47;13.30;63.30
9901;DHT22;4989;48.772;9.154;2023-04-26T22:32:49;13.50;63.40
9901;DHT22;4989;48.772;9.154;2023-04-26T22:37:55;13.50;62.30
9901;DHT22;4989;48.772;9.154;2023-04-26T22:42:57;13.60;62.50
9901;DHT22;4989;48.772;9.154;2023-04-26T22:48:00;13.60;63.70
9901;DHT22;4989;48.772;9.154;2023-04-26T22:53:02;13.90;65.20
9901;DHT22;4989;48.772;9.154;2023-04-26T22:58:04;13.90;64.20
9901;DHT22;4989;48.772;9.154;2023-04-26T23:03:07;13.50;62.10
9901;DHT22;4989;48.772;9.154;2023-04-26T23:08:09;13.30;61.50
9901;DHT22;4989;48.772;9.154;2023-04-26T23:13:11;13.00;61.40
9901;DHT22;4989;48.772;9.154;2023-04-26T23:18:15;12.80;64.70
9901;DHT22;4989;48.772;9.154;2023-04-26T23:23:17;13.10;62.70
9901;DHT22;4989;48.772;9.154;2023-04-26T23:28:20;12.70;63.50
9901;DHT22;4989;48.772;9.154;2023-04-26T23:33:22;12.90;62.60
9901;DHT22;4989;48.772;9.154;2023-04-26T23:38:26;12.90;62.50
9901;DHT22;4989;48.772;9.154;2023-04-26T23:43:28;13.10;64.50
9901;DHT22;4989;48.772;9.154;2023-04-26T23:48:30;12.70;64.70
9901;DHT22;4989;48.772;9.154;2023-04-26T23:53:33;12.50;64.70
9901;DHT22;4989;48.772;9.154;2023-04-26T23:58:35;12.60;68.30
